sensor_id;sensor_type;location;lat;lon;timestamp;temperature;humidity
37658;DHT22;23500;53.268;8.308;2022-08-01T00:00:24;22.10;69.60
37658;DHT22;23500;53.268;8.308;2022-08-01T00:02:50;22.10;69.50
37658;DHT22;23500;53.268;8.308;2022-08-01T00:05:16;22.00;69.20
37658;DHT22;23500;53.268;8.308;2022-08-01T00:07:42;22.10;69.10
37658;DHT22;23500;53.268;8.308;2022-08-01T00:10:12;22.10;68.90
37658;DHT22;23500;53.268;8.308;2022-08-01T00:12:38;22.10;68.80
37658;DHT22;23500;53.268;8.308;2022-08-01T00:15:05;22.00;68.80
37658;DHT22;23500;53.268;8.308;2022-08-01T00:17:31;22.00;68.70
37658;DHT22;23500;53.268;8.308;2022-08-01T00:19:57;22.00;69.00
37658;DHT22;23500;53.268;8.308;2022-08-01T00:22:23;22.00;69.60
37658;DHT22;23500;53.268;8.308;2022-08-01T00:24:48;22.00;69.40
37658;DHT22;23500;53.268;8.308;2022-08-01T00:27:14;22.00;69.70
37658;DHT22;23500;53.268;8.308;2022-08-01T00:29:40;22.00;69.40
37658;DHT22;23500;53.268;8.308;2022-08-01T00:32:05;22.00;69.70
37658;DHT22;23500;53.268;8.308;2022-08-01T00:34:31;22.00;69.80
37658;DHT22;23500;53.268;8.308;2022-08-01T00:36:57;22.00;69.60
37658;DHT22;23500;53.268;8.308;2022-08-01T00:39:22;22.00;69.20
37658;DHT22;23500;53.268;8.308;2022-08-01T00:41:48;22.00;69.10
37658;DHT22;23500;53.268;8.308;2022-08-01T00:44:13;22.00;69.10
37658;DHT22;23500;53.268;8.308;2022-08-01T00:46:39;22.00;69.10
37658;DHT22;23500;53.268;8.308;2022-08-01T00:49:05;22.00;69.00
37658;DHT22;23500;53.268;8.308;2022-08-01T00:51:31;22.00;69.10
37658;DHT22;23500;53.268;8.308;2022-08-01T00:53:56;22.00;69.20
37658;DHT22;23500;53.268;8.308;2022-08-01T00:56:24;22.00;70.40
37658;DHT22;23500;53.268;8.308;2022-08-01T00:58:51;22.00;71.00
37658;DHT22;23500;53.268;8.308;2022-08-01T01:01:17;22.00;71.50
37658;DHT22;23500;53.268;8.308;2022-08-01T01:03:43;22.00;71.30
37658;DHT22;23500;53.268;8.308;2022-08-01T01:14:30;22.00;72.60
37658;DHT22;23500;53.268;8.308;2022-08-01T01:16:58;22.00;72.30
37658;DHT22;23500;53.268;8.308;2022-08-01T01:19:29;22.00;72.10
37658;DHT22;23500;53.268;8.308;2022-08-01T01:22:17;21.90;72.30
37658;DHT22;23500;53.268;8.308;2022-08-01T01:30:41;21.90;72.40
37658;DHT22;23500;53.268;8.308;2022-08-01T01:33:10;21.90;72.40
37658;DHT22;23500;53.268;8.308;2022-08-01T01:35:48;21.90;72.90
37658;DHT22;23500;53.268;8.308;2022-08-01T01:38:20;21.90;72.60
37658;DHT22;23500;53.268;8.308;2022-08-01T01:40:48;21.90;72.70
37658;DHT22;23500;53.268;8.308;2022-08-01T01:43:15;21.90;73.50
37658;DHT22;23500;53.268;8.308;2022-08-01T01:45:42;21.90;73.10
37658;DHT22;23500;53.268;8.308;2022-08-01T01:48:10;21.90;73.60
37658;DHT22;23500;53.268;8.308;2022-08-01T01:50:39;21.90;73.00
37658;DHT22;23500;53.268;8.308;2022-08-01T01:53:05;21.90;73.20
37658;DHT22;23500;53.268;8.308;2022-08-01T01:55:32;21.90;73.10
37658;DHT22;23500;53.268;8.308;2022-08-01T01:58:00;21.90;73.40
37658;DHT22;23500;53.268;8.308;2022-08-01T02:00:26;21.90;73.70
37658;DHT22;23500;53.268;8.308;2022-08-01T02:02:55;21.90;74.10
37658;DHT22;23500;53.268;8.308;2022-08-01T02:05:22;21.90;73.20
37658;DHT22;23500;53.268;8.308;2022-08-01T02:07:50;21.90;73.70
37658;DHT22;23500;53.268;8.308;2022-08-01T02:10:18;21.90;73.70
37658;DHT22;23500;53.268;8.308;2022-08-01T02:12:45;21.90;73.70
37658;DHT22;23500;53.268;8.308;2022-08-01T02:15:13;21.80;73.30
37658;DHT22;23500;53.268;8.308;2022-08-01T02:17:46;21.80;73.70
37658;DHT22;23500;53.268;8.308;2022-08-01T02:20:13;21.80;73.50
37658;DHT22;23500;53.268;8.308;2022-08-01T02:22:53;21.80;73.20
37658;DHT22;23500;53.268;8.308;2022-08-01T02:25:32;21.80;74.00
37658;DHT22;23500;53.268;8.308;2022-08-01T02:28:05;21.80;74.20
37658;DHT22;23500;53.268;8.308;2022-08-01T02:30:40;21.80;73.70
37658;DHT22;23500;53.268;8.308;2022-08-01T02:33:10;21.80;74.20
37658;DHT22;23500;53.268;8.308;2022-08-01T02:35:38;21.80;73.70
37658;DHT22;23500;53.268;8.308;2022-08-01T02:38:08;21.80;73.80
37658;DHT22;23500;53.268;8.308;2022-08-01T02:40:38;21.80;73.50
37658;DHT22;23500;53.268;8.308;2022-08-01T02:43:06;21.80;73.30
37658;DHT22;23500;53.268;8.308;2022-08-01T02:45:34;21.80;73.50
37658;DHT22;23500;53.268;8.308;2022-08-01T02:48:13;21.80;73.40
37658;DHT22;23500;53.268;8.308;2022-08-01T02:50:44;21.70;73.80
37658;DHT22;23500;53.268;8.308;2022-08-01T02:53:12;21.70;73.70
37658;DHT22;23500;53.268;8.308;2022-08-01T02:55:39;21.70;73.60
37658;DHT22;23500;53.268;8.308;2022-08-01T02:58:07;21.70;73.60
37658;DHT22;23500;53.268;8.308;2022-08-01T03:00:34;21.70;73.80
37658;DHT22;23500;53.268;8.308;2022-08-01T03:03:01;21.70;73.90
37658;DHT22;23500;53.268;8.308;2022-08-01T03:05:29;21.70;74.00
37658;DHT22;23500;53.268;8.308;2022-08-01T03:07:58;21.70;73.70
37658;DHT22;23500;53.268;8.308;2022-08-01T03:10:26;21.70;73.80
37658;DHT22;23500;53.268;8.308;2022-08-01T03:12:52;21.70;73.80
37658;DHT22;23500;53.268;8.308;2022-08-01T03:15:18;21.70;73.90
37658;DHT22;23500;53.268;8.308;2022-08-01T03:17:45;21.70;74.00
37658;DHT22;23500;53.268;8.308;2022-08-01T03:20:14;21.70;73.80
37658;DHT22;23500;53.268;8.308;2022-08-01T03:22:42;21.70;73.80
37658;DHT22;23500;53.268;8.308;2022-08-01T03:25:11;21.70;73.90
37658;DHT22;23500;53.268;8.308;2022-08-01T03:27:40;21.70;73.80
37658;DHT22;23500;53.268;8.308;2022-08-01T03:30:07;21.70;73.80
37658;DHT22;23500;53.268;8.308;2022-08-01T03:32:33;21.70;73.80
37658;DHT22;23500;53.268;8.308;2022-08-01T03:34:59;21.70;73.80
37658;DHT22;23500;53.268;8.308;2022-08-01T03:37:42;21.60;73.90
37658;DHT22;23500;53.268;8.308;2022-08-01T03:40:13;21.70;73.50
37658;DHT22;23500;53.268;8.308;2022-08-01T03:42:47;21.70;72.90
37658;DHT22;23500;53.268;8.308;2022-08-01T03:45:23;21.60;73.90
37658;DHT22;23500;53.268;8.308;2022-08-01T03:47:56;21.60;73.00
37658;DHT22;23500;53.268;8.308;2022-08-01T03:50:24;21.60;72.10
37658;DHT22;23500;53.268;8.308;2022-08-01T03:52:51;21.60;73.60
37658;DHT22;23500;53.268;8.308;2022-08-01T03:55:18;21.60;72.80
37658;DHT22;23500;53.268;8.308;2022-08-01T03:57:46;21.60;73.90
37658;DHT22;23500;53.268;8.308;2022-08-01T04:00:13;21.60;73.70
37658;DHT22;23500;53.268;8.308;2022-08-01T04:02:47;21.60;72.20
37658;DHT22;23500;53.268;8.308;2022-08-01T04:05:17;21.60;73.00
37658;DHT22;23500;53.268;8.308;2022-08-01T04:07:48;21.60;71.80
37658;DHT22;23500;53.268;8.308;2022-08-01T04:10:20;21.60;73.20
37658;DHT22;23500;53.268;8.308;2022-08-01T04:12:46;21.60;72.60
37658;DHT22;23500;53.268;8.308;2022-08-01T04:15:12;21.60;73.10
37658;DHT22;23500;53.268;8.308;2022-08-01T04:17:37;21.60;72.20
37658;DHT22;23500;53.268;8.308;2022-08-01T04:20:03;21.60;73.50
37658;DHT22;23500;53.268;8.308;2022-08-01T04:22:29;21.60;72.50
37658;DHT22;23500;53.268;8.308;2022-08-01T04:24:57;21.60;73.40
37658;DHT22;23500;53.268;8.308;2022-08-01T04:27:30;21.60;72.80
37658;DHT22;23500;53.268;8.308;2022-08-01T04:29:58;21.60;72.90
37658;DHT22;23500;53.268;8.308;2022-08-01T04:32:26;21.60;72.40
37658;DHT22;23500;53.268;8.308;2022-08-01T04:34:54;21.60;73.10
37658;DHT22;23500;53.268;8.308;2022-08-01T04:37:23;21.60;73.30
37658;DHT22;23500;53.268;8.308;2022-08-01T04:39:49;21.60;73.00
37658;DHT22;23500;53.268;8.308;2022-08-01T04:42:16;21.60;72.60
37658;DHT22;23500;53.268;8.308;2022-08-01T04:44:42;21.60;72.70
37658;DHT22;23500;53.268;8.308;2022-08-01T04:47:09;21.60;73.10
37658;DHT22;23500;53.268;8.308;2022-08-01T04:49:35;21.60;73.00
37658;DHT22;23500;53.268;8.308;2022-08-01T04:52:01;21.60;73.00
37658;DHT22;23500;53.268;8.308;2022-08-01T04:54:28;21.60;73.20
37658;DHT22;23500;53.268;8.308;2022-08-01T04:56:55;21.60;73.20
37658;DHT22;23500;53.268;8.308;2022-08-01T04:59:26;21.60;72.60
37658;DHT22;23500;53.268;8.308;2022-08-01T05:02:18;21.60;72.90
37658;DHT22;23500;53.268;8.308;2022-08-01T05:04:45;21.60;73.00
37658;DHT22;23500;53.268;8.308;2022-08-01T05:07:11;21.50;73.00
37658;DHT22;23500;53.268;8.308;2022-08-01T05:09:39;21.60;72.60
37658;DHT22;23500;53.268;8.308;2022-08-01T05:12:07;21.50;72.90
37658;DHT22;23500;53.268;8.308;2022-08-01T05:14:33;21.50;72.50
37658;DHT22;23500;53.268;8.308;2022-08-01T05:17:01;21.50;72.70
37658;DHT22;23500;53.268;8.308;2022-08-01T05:19:35;21.50;72.50
37658;DHT22;23500;53.268;8.308;2022-08-01T05:22:04;21.50;72.30
37658;DHT22;23500;53.268;8.308;2022-08-01T05:24:31;21.50;72.60
37658;DHT22;23500;53.268;8.308;2022-08-01T05:26:58;21.50;72.50
37658;DHT22;23500;53.268;8.308;2022-08-01T05:29:24;21.50;72.30
37658;DHT22;23500;53.268;8.308;2022-08-01T05:31:50;21.50;72.20
37658;DHT22;23500;53.268;8.308;2022-08-01T05:34:17;21.50;72.70
37658;DHT22;23500;53.268;8.308;2022-08-01T05:36:43;21.50;72.20
37658;DHT22;23500;53.268;8.308;2022-08-01T05:39:08;21.50;72.10
37658;DHT22;23500;53.268;8.308;2022-08-01T05:41:35;21.50;72.40
37658;DHT22;23500;53.268;8.308;2022-08-01T05:44:05;21.50;72.30
37658;DHT22;23500;53.268;8.308;2022-08-01T05:46:31;21.50;72.30
37658;DHT22;23500;53.268;8.308;2022-08-01T05:48:58;21.40;72.30
37658;DHT22;23500;53.268;8.308;2022-08-01T05:51:24;21.40;72.20
37658;DHT22;23500;53.268;8.308;2022-08-01T05:53:50;21.40;72.30
37658;DHT22;23500;53.268;8.308;2022-08-01T05:56:15;21.40;72.20
37658;DHT22;23500;53.268;8.308;2022-08-01T05:58:41;21.40;72.10
37658;DHT22;23500;53.268;8.308;2022-08-01T06:01:07;21.40;72.20
37658;DHT22;23500;53.268;8.308;2022-08-01T06:03:33;21.40;72.00
37658;DHT22;23500;53.268;8.308;2022-08-01T06:05:59;21.40;72.10
37658;DHT22;23500;53.268;8.308;2022-08-01T06:08:25;21.40;72.00
37658;DHT22;23500;53.268;8.308;2022-08-01T06:10:51;21.40;71.90
37658;DHT22;23500;53.268;8.308;2022-08-01T06:13:17;21.40;72.10
37658;DHT22;23500;53.268;8.308;2022-08-01T06:15:43;21.40;72.10
37658;DHT22;23500;53.268;8.308;2022-08-01T06:18:09;21.40;71.80
37658;DHT22;23500;53.268;8.308;2022-08-01T06:20:34;21.40;72.00
37658;DHT22;23500;53.268;8.308;2022-08-01T06:23:00;21.40;72.00
37658;DHT22;23500;53.268;8.308;2022-08-01T06:25:26;21.40;71.90
37658;DHT22;23500;53.268;8.308;2022-08-01T06:27:52;21.40;72.00
37658;DHT22;23500;53.268;8.308;2022-08-01T06:30:19;21.40;71.70
37658;DHT22;23500;53.268;8.308;2022-08-01T06:32:44;21.40;71.90
37658;DHT22;23500;53.268;8.308;2022-08-01T06:35:10;21.40;71.70
37658;DHT22;23500;53.268;8.308;2022-08-01T06:37:36;21.40;71.60
37658;DHT22;23500;53.268;8.308;2022-08-01T06:40:07;21.40;71.70
37658;DHT22;23500;53.268;8.308;2022-08-01T06:42:33;21.40;71.80
37658;DHT22;23500;53.268;8.308;2022-08-01T06:45:09;21.50;71.70
37658;DHT22;23500;53.268;8.308;2022-08-01T06:47:36;21.50;71.70
37658;DHT22;23500;53.268;8.308;2022-08-01T06:50:02;21.50;71.90
37658;DHT22;23500;53.268;8.308;2022-08-01T06:52:28;21.60;72.30
37658;DHT22;23500;53.268;8.308;2022-08-01T06:54:53;21.60;71.90
37658;DHT22;23500;53.268;8.308;2022-08-01T06:57:19;21.70;71.70
37658;DHT22;23500;53.268;8.308;2022-08-01T06:59:45;21.80;71.20
37658;DHT22;23500;53.268;8.308;2022-08-01T07:02:10;21.90;71.20
37658;DHT22;23500;53.268;8.308;2022-08-01T07:04:36;21.90;71.80
37658;DHT22;23500;53.268;8.308;2022-08-01T07:07:03;22.00;70.40
37658;DHT22;23500;53.268;8.308;2022-08-01T07:09:29;22.10;69.60
37658;DHT22;23500;53.268;8.308;2022-08-01T07:11:55;22.10;69.40
37658;DHT22;23500;53.268;8.308;2022-08-01T07:14:23;22.10;69.30
37658;DHT22;23500;53.268;8.308;2022-08-01T07:16:49;22.20;69.20
37658;DHT22;23500;53.268;8.308;2022-08-01T07:19:15;22.20;69.00
37658;DHT22;23500;53.268;8.308;2022-08-01T07:21:41;22.30;69.00
37658;DHT22;23500;53.268;8.308;2022-08-01T07:24:08;22.30;68.80
37658;DHT22;23500;53.268;8.308;2022-08-01T07:26:34;22.30;68.60
37658;DHT22;23500;53.268;8.308;2022-08-01T07:29:00;22.40;68.70
37658;DHT22;23500;53.268;8.308;2022-08-01T07:31:25;22.40;68.60
37658;DHT22;23500;53.268;8.308;2022-08-01T07:33:51;22.40;68.50
37658;DHT22;23500;53.268;8.308;2022-08-01T07:36:17;22.40;68.40
37658;DHT22;23500;53.268;8.308;2022-08-01T07:38:44;22.40;68.40
37658;DHT22;23500;53.268;8.308;2022-08-01T07:41:09;22.50;68.40
37658;DHT22;23500;53.268;8.308;2022-08-01T07:43:35;22.50;68.40
37658;DHT22;23500;53.268;8.308;2022-08-01T07:46:05;22.50;68.40
37658;DHT22;23500;53.268;8.308;2022-08-01T07:48:31;22.40;68.30
37658;DHT22;23500;53.268;8.308;2022-08-01T07:50:56;22.50;68.30
37658;DHT22;23500;53.268;8.308;2022-08-01T07:53:22;22.50;68.40
37658;DHT22;23500;53.268;8.308;2022-08-01T07:55:48;22.40;68.30
37658;DHT22;23500;53.268;8.308;2022-08-01T07:58:14;22.40;68.40
37658;DHT22;23500;53.268;8.308;2022-08-01T08:00:40;22.40;68.30
37658;DHT22;23500;53.268;8.308;2022-08-01T08:03:06;22.40;68.30
37658;DHT22;23500;53.268;8.308;2022-08-01T08:05:31;22.40;68.30
37658;DHT22;23500;53.268;8.308;2022-08-01T08:08:01;22.40;68.30
37658;DHT22;23500;53.268;8.308;2022-08-01T08:10:27;22.50;68.30
37658;DHT22;23500;53.268;8.308;2022-08-01T08:12:52;22.50;68.30
37658;DHT22;23500;53.268;8.308;2022-08-01T08:15:18;22.50;68.20
37658;DHT22;23500;53.268;8.308;2022-08-01T08:17:44;22.50;68.20
37658;DHT22;23500;53.268;8.308;2022-08-01T08:20:09;22.50;68.20
37658;DHT22;23500;53.268;8.308;2022-08-01T08:22:35;22.50;68.10
37658;DHT22;23500;53.268;8.308;2022-08-01T08:25:01;22.50;67.90
37658;DHT22;23500;53.268;8.308;2022-08-01T08:27:27;22.50;67.90
37658;DHT22;23500;53.268;8.308;2022-08-01T08:29:53;22.60;68.00
37658;DHT22;23500;53.268;8.308;2022-08-01T08:32:18;22.60;68.00
37658;DHT22;23500;53.268;8.308;2022-08-01T08:34:44;22.60;68.00
37658;DHT22;23500;53.268;8.308;2022-08-01T08:37:10;22.60;67.90
37658;DHT22;23500;53.268;8.308;2022-08-01T08:39:36;22.60;67.90
37658;DHT22;23500;53.268;8.308;2022-08-01T08:42:06;22.60;67.80
37658;DHT22;23500;53.268;8.308;2022-08-01T08:44:32;22.60;67.90
37658;DHT22;23500;53.268;8.308;2022-08-01T08:47:01;22.60;67.80
37658;DHT22;23500;53.268;8.308;2022-08-01T08:49:30;22.60;67.80
37658;DHT22;23500;53.268;8.308;2022-08-01T08:51:59;22.60;67.80
37658;DHT22;23500;53.268;8.308;2022-08-01T08:54:27;22.60;67.90
37658;DHT22;23500;53.268;8.308;2022-08-01T08:56:54;22.60;67.70
37658;DHT22;23500;53.268;8.308;2022-08-01T08:59:20;22.60;67.70
37658;DHT22;23500;53.268;8.308;2022-08-01T09:01:46;22.60;67.70
37658;DHT22;23500;53.268;8.308;2022-08-01T09:04:13;22.60;67.70
37658;DHT22;23500;53.268;8.308;2022-08-01T09:06:39;22.60;67.70
37658;DHT22;23500;53.268;8.308;2022-08-01T09:09:06;22.60;67.60
37658;DHT22;23500;53.268;8.308;2022-08-01T09:11:32;22.60;67.60
37658;DHT22;23500;53.268;8.308;2022-08-01T09:14:19;22.60;67.60
37658;DHT22;23500;53.268;8.308;2022-08-01T09:17:06;22.60;67.50
37658;DHT22;23500;53.268;8.308;2022-08-01T09:19:37;22.60;67.50
37658;DHT22;23500;53.268;8.308;2022-08-01T09:22:06;22.60;68.20
37658;DHT22;23500;53.268;8.308;2022-08-01T09:24:33;22.60;67.40
37658;DHT22;23500;53.268;8.308;2022-08-01T09:27:00;22.60;67.50
37658;DHT22;23500;53.268;8.308;2022-08-01T09:29:30;22.60;68.10
37658;DHT22;23500;53.268;8.308;2022-08-01T09:32:05;22.60;67.30
37658;DHT22;23500;53.268;8.308;2022-08-01T09:34:31;22.60;67.40
37658;DHT22;23500;53.268;8.308;2022-08-01T09:37:00;22.60;67.30
37658;DHT22;23500;53.268;8.308;2022-08-01T09:39:31;22.60;67.30
37658;DHT22;23500;53.268;8.308;2022-08-01T09:42:00;22.60;67.30
37658;DHT22;23500;53.268;8.308;2022-08-01T09:44:40;22.60;67.30
37658;DHT22;23500;53.268;8.308;2022-08-01T09:47:06;22.70;67.40
37658;DHT22;23500;53.268;8.308;2022-08-01T09:49:34;22.60;67.30
37658;DHT22;23500;53.268;8.308;2022-08-01T09:54:36;22.60;67.30
37658;DHT22;23500;53.268;8.308;2022-08-01T09:59:36;22.60;67.30
37658;DHT22;23500;53.268;8.308;2022-08-01T10:02:03;22.60;67.20
37658;DHT22;23500;53.268;8.308;2022-08-01T10:04:29;22.60;67.30
37658;DHT22;23500;53.268;8.308;2022-08-01T10:07:04;22.60;67.30
37658;DHT22;23500;53.268;8.308;2022-08-01T10:09:35;22.60;67.20
37658;DHT22;23500;53.268;8.308;2022-08-01T10:12:02;22.60;67.30
37658;DHT22;23500;53.268;8.308;2022-08-01T10:14:28;22.60;67.20
37658;DHT22;23500;53.268;8.308;2022-08-01T10:16:57;22.60;67.30
37658;DHT22;23500;53.268;8.308;2022-08-01T10:19:25;22.60;67.20
37658;DHT22;23500;53.268;8.308;2022-08-01T10:21:52;22.60;67.30
37658;DHT22;23500;53.268;8.308;2022-08-01T10:24:23;22.60;67.20
37658;DHT22;23500;53.268;8.308;2022-08-01T10:26:52;22.60;67.20
37658;DHT22;23500;53.268;8.308;2022-08-01T10:29:21;22.60;67.10
37658;DHT22;23500;53.268;8.308;2022-08-01T10:31:48;22.70;67.20
37658;DHT22;23500;53.268;8.308;2022-08-01T10:34:15;22.60;67.10
37658;DHT22;23500;53.268;8.308;2022-08-01T10:36:45;22.60;67.10
37658;DHT22;23500;53.268;8.308;2022-08-01T10:39:11;22.60;67.10
37658;DHT22;23500;53.268;8.308;2022-08-01T10:41:41;22.60;67.10
37658;DHT22;23500;53.268;8.308;2022-08-01T10:44:07;22.60;67.10
37658;DHT22;23500;53.268;8.308;2022-08-01T10:46:37;22.60;67.10
37658;DHT22;23500;53.268;8.308;2022-08-01T10:49:15;22.60;67.10
37658;DHT22;23500;53.268;8.308;2022-08-01T10:51:42;22.60;67.10
37658;DHT22;23500;53.268;8.308;2022-08-01T10:54:10;22.60;67.10
37658;DHT22;23500;53.268;8.308;2022-08-01T10:56:47;22.60;67.10
37658;DHT22;23500;53.268;8.308;2022-08-01T10:59:27;22.60;67.10
37658;DHT22;23500;53.268;8.308;2022-08-01T11:07:21;22.60;67.70
37658;DHT22;23500;53.268;8.308;2022-08-01T11:09:48;22.60;67.00
37658;DHT22;23500;53.268;8.308;2022-08-01T11:12:41;22.60;67.00
37658;DHT22;23500;53.268;8.308;2022-08-01T11:17:37;22.60;67.00
37658;DHT22;23500;53.268;8.308;2022-08-01T11:20:17;22.60;67.00
37658;DHT22;23500;53.268;8.308;2022-08-01T11:30:41;22.70;66.90
37658;DHT22;23500;53.268;8.308;2022-08-01T11:33:07;22.70;66.90
37658;DHT22;23500;53.268;8.308;2022-08-01T11:35:36;22.70;66.90
37658;DHT22;23500;53.268;8.308;2022-08-01T11:38:25;22.70;66.80
37658;DHT22;23500;53.268;8.308;2022-08-01T11:49:48;22.70;66.80
37658;DHT22;23500;53.268;8.308;2022-08-01T11:52:28;22.70;66.80
37658;DHT22;23500;53.268;8.308;2022-08-01T11:55:05;22.70;67.50
37658;DHT22;23500;53.268;8.308;2022-08-01T11:57:32;22.70;66.80
37658;DHT22;23500;53.268;8.308;2022-08-01T12:02:36;22.70;66.80
37658;DHT22;23500;53.268;8.308;2022-08-01T12:05:08;22.70;66.70
37658;DHT22;23500;53.268;8.308;2022-08-01T12:07:36;22.70;66.70
37658;DHT22;23500;53.268;8.308;2022-08-01T12:10:08;22.70;66.60
37658;DHT22;23500;53.268;8.308;2022-08-01T12:12:36;22.70;66.10
37658;DHT22;23500;53.268;8.308;2022-08-01T12:15:07;22.70;66.60
37658;DHT22;23500;53.268;8.308;2022-08-01T12:17:44;22.70;66.50
37658;DHT22;23500;53.268;8.308;2022-08-01T12:20:12;22.70;66.50
37658;DHT22;23500;53.268;8.308;2022-08-01T12:22:38;22.70;66.40
37658;DHT22;23500;53.268;8.308;2022-08-01T12:25:15;22.70;66.50
37658;DHT22;23500;53.268;8.308;2022-08-01T12:27:42;22.70;66.50
37658;DHT22;23500;53.268;8.308;2022-08-01T12:30:10;22.70;66.40
37658;DHT22;23500;53.268;8.308;2022-08-01T12:32:39;22.70;66.40
37658;DHT22;23500;53.268;8.308;2022-08-01T12:35:08;22.70;66.40
37658;DHT22;23500;53.268;8.308;2022-08-01T12:37:42;22.70;66.40
37658;DHT22;23500;53.268;8.308;2022-08-01T12:40:18;22.70;67.00
37658;DHT22;23500;53.268;8.308;2022-08-01T12:42:49;22.70;66.40
37658;DHT22;23500;53.268;8.308;2022-08-01T12:45:18;22.70;66.30
37658;DHT22;23500;53.268;8.308;2022-08-01T12:47:45;22.70;66.30
37658;DHT22;23500;53.268;8.308;2022-08-01T12:50:15;22.70;66.30
37658;DHT22;23500;53.268;8.308;2022-08-01T12:52:41;22.70;66.30
37658;DHT22;23500;53.268;8.308;2022-08-01T12:55:12;22.70;66.30
37658;DHT22;23500;53.268;8.308;2022-08-01T12:57:39;22.70;66.10
37658;DHT22;23500;53.268;8.308;2022-08-01T13:00:25;22.70;65.80
37658;DHT22;23500;53.268;8.308;2022-08-01T13:03:08;22.70;65.80
37658;DHT22;23500;53.268;8.308;2022-08-01T13:05:51;22.70;64.90
37658;DHT22;23500;53.268;8.308;2022-08-01T13:11:03;22.70;65.90
37658;DHT22;23500;53.268;8.308;2022-08-01T13:13:43;22.70;65.90
37658;DHT22;23500;53.268;8.308;2022-08-01T13:16:10;22.70;66.00
37658;DHT22;23500;53.268;8.308;2022-08-01T13:18:36;22.70;65.70
37658;DHT22;23500;53.268;8.308;2022-08-01T13:21:10;22.70;66.00
37658;DHT22;23500;53.268;8.308;2022-08-01T13:23:37;22.70;65.90
37658;DHT22;23500;53.268;8.308;2022-08-01T13:26:03;22.70;66.00
37658;DHT22;23500;53.268;8.308;2022-08-01T13:28:30;22.70;66.00
37658;DHT22;23500;53.268;8.308;2022-08-01T13:31:02;22.70;66.00
37658;DHT22;23500;53.268;8.308;2022-08-01T13:33:41;22.70;66.00
37658;DHT22;23500;53.268;8.308;2022-08-01T13:36:07;22.70;66.00
37658;DHT22;23500;53.268;8.308;2022-08-01T13:38:33;22.70;66.00
37658;DHT22;23500;53.268;8.308;2022-08-01T13:41:17;22.70;66.00
37658;DHT22;23500;53.268;8.308;2022-08-01T13:43:43;22.70;66.00
37658;DHT22;23500;53.268;8.308;2022-08-01T13:46:08;22.70;66.00
37658;DHT22;23500;53.268;8.308;2022-08-01T13:48:34;22.70;66.00
37658;DHT22;23500;53.268;8.308;2022-08-01T13:51:00;22.70;66.00
37658;DHT22;23500;53.268;8.308;2022-08-01T13:53:26;22.70;65.90
37658;DHT22;23500;53.268;8.308;2022-08-01T13:55:52;22.70;65.40
37658;DHT22;23500;53.268;8.308;2022-08-01T13:58:18;22.80;61.30
37658;DHT22;23500;53.268;8.308;2022-08-01T14:00:43;22.80;64.80
37658;DHT22;23500;53.268;8.308;2022-08-01T14:03:09;22.80;65.10
37658;DHT22;23500;53.268;8.308;2022-08-01T14:05:36;22.80;65.30
37658;DHT22;23500;53.268;8.308;2022-08-01T14:08:02;22.80;65.50
37658;DHT22;23500;53.268;8.308;2022-08-01T14:10:28;22.80;62.40
37658;DHT22;23500;53.268;8.308;2022-08-01T14:12:55;22.80;65.50
37658;DHT22;23500;53.268;8.308;2022-08-01T14:15:20;22.80;65.50
37658;DHT22;23500;53.268;8.308;2022-08-01T14:17:46;22.80;63.70
37658;DHT22;23500;53.268;8.308;2022-08-01T14:20:12;22.80;65.40
37658;DHT22;23500;53.268;8.308;2022-08-01T14:22:37;22.80;64.00
37658;DHT22;23500;53.268;8.308;2022-08-01T14:25:05;22.80;65.10
37658;DHT22;23500;53.268;8.308;2022-08-01T14:27:30;22.80;65.30
37658;DHT22;23500;53.268;8.308;2022-08-01T14:29:57;22.80;64.40
37658;DHT22;23500;53.268;8.308;2022-08-01T14:32:22;22.80;64.80
37658;DHT22;23500;53.268;8.308;2022-08-01T14:34:48;22.80;65.30
37658;DHT22;23500;53.268;8.308;2022-08-01T14:37:13;22.80;65.30
37658;DHT22;23500;53.268;8.308;2022-08-01T14:39:39;22.80;65.40
37658;DHT22;23500;53.268;8.308;2022-08-01T14:42:05;22.70;65.10
37658;DHT22;23500;53.268;8.308;2022-08-01T14:44:30;22.70;65.50
37658;DHT22;23500;53.268;8.308;2022-08-01T14:46:56;22.70;65.60
37658;DHT22;23500;53.268;8.308;2022-08-01T14:49:22;22.70;65.40
37658;DHT22;23500;53.268;8.308;2022-08-01T14:51:47;22.70;65.30
37658;DHT22;23500;53.268;8.308;2022-08-01T14:54:13;22.80;65.60
37658;DHT22;23500;53.268;8.308;2022-08-01T14:56:39;22.70;65.60
37658;DHT22;23500;53.268;8.308;2022-08-01T14:59:04;22.70;65.60
37658;DHT22;23500;53.268;8.308;2022-08-01T15:01:30;22.70;64.00
37658;DHT22;23500;53.268;8.308;2022-08-01T15:03:55;22.70;65.40
37658;DHT22;23500;53.268;8.308;2022-08-01T15:06:21;22.70;65.70
37658;DHT22;23500;53.268;8.308;2022-08-01T15:08:47;22.70;65.70
37658;DHT22;23500;53.268;8.308;2022-08-01T15:11:13;22.70;65.70
37658;DHT22;23500;53.268;8.308;2022-08-01T15:13:39;22.70;65.80
37658;DHT22;23500;53.268;8.308;2022-08-01T15:16:04;22.70;63.40
37658;DHT22;23500;53.268;8.308;2022-08-01T15:18:30;22.70;65.70
37658;DHT22;23500;53.268;8.308;2022-08-01T15:20:56;22.70;65.70
37658;DHT22;23500;53.268;8.308;2022-08-01T15:23:22;22.70;63.80
37658;DHT22;23500;53.268;8.308;2022-08-01T15:25:49;22.70;65.80
37658;DHT22;23500;53.268;8.308;2022-08-01T15:28:15;22.70;64.50
37658;DHT22;23500;53.268;8.308;2022-08-01T15:30:40;22.80;65.50
37658;DHT22;23500;53.268;8.308;2022-08-01T15:33:06;22.70;65.00
37658;DHT22;23500;53.268;8.308;2022-08-01T15:35:32;22.70;64.70
37658;DHT22;23500;53.268;8.308;2022-08-01T15:37:58;22.70;65.50
37658;DHT22;23500;53.268;8.308;2022-08-01T15:40:23;22.80;65.40
37658;DHT22;23500;53.268;8.308;2022-08-01T15:42:49;22.80;65.70
37658;DHT22;23500;53.268;8.308;2022-08-01T15:45:15;22.70;63.90
37658;DHT22;23500;53.268;8.308;2022-08-01T15:47:43;22.70;64.60
37658;DHT22;23500;53.268;8.308;2022-08-01T15:50:10;22.80;62.80
37658;DHT22;23500;53.268;8.308;2022-08-01T15:52:35;22.80;64.70
37658;DHT22;23500;53.268;8.308;2022-08-01T15:55:01;22.80;63.50
37658;DHT22;23500;53.268;8.308;2022-08-01T15:57:27;22.80;59.90
37658;DHT22;23500;53.268;8.308;2022-08-01T15:59:53;22.80;59.90
37658;DHT22;23500;53.268;8.308;2022-08-01T16:02:19;22.80;61.10
37658;DHT22;23500;53.268;8.308;2022-08-01T16:04:44;22.80;59.00
37658;DHT22;23500;53.268;8.308;2022-08-01T16:07:10;22.80;57.80
37658;DHT22;23500;53.268;8.308;2022-08-01T16:09:36;22.80;59.40
37658;DHT22;23500;53.268;8.308;2022-08-01T16:12:02;22.80;59.90
37658;DHT22;23500;53.268;8.308;2022-08-01T16:14:28;22.80;58.80
37658;DHT22;23500;53.268;8.308;2022-08-01T16:16:53;22.80;63.80
37658;DHT22;23500;53.268;8.308;2022-08-01T16:19:19;22.80;60.10
37658;DHT22;23500;53.268;8.308;2022-08-01T16:21:45;22.80;59.20
37658;DHT22;23500;53.268;8.308;2022-08-01T16:24:10;22.80;58.40